sensor_id;sensor_type;location;lat;lon;timestamp;P1;durP1;ratioP1;P2;durP2;ratioP2
9098;SDS011;4585;51.414;6.776;2022-07-25T00:00:28;8.83;;;5.53;;
9098;SDS011;4585;51.414;6.776;2022-07-25T00:02:53;6.80;;;5.60;;
9098;SDS011;4585;51.414;6.776;2022-07-25T00:05:19;6.60;;;5.10;;
9098;SDS011;4585;51.414;6.776;2022-07-25T00:07:45;6.43;;;5.10;;
9098;SDS011;4585;51.414;6.776;2022-07-25T00:10:11;8.07;;;5.50;;
9098;SDS011;4585;51.414;6.776;2022-07-25T00:12:37;6.73;;;4.93;;
9098;SDS011;4585;51.414;6.776;2022-07-25T00:15:03;6.57;;;5.07;;
9098;SDS011;4585;51.414;6.776;2022-07-25T00:17:29;7.93;;;5.27;;
9098;SDS011;4585;51.414;6.776;2022-07-25T00:19:55;5.93;;;5.10;;
9098;SDS011;4585;51.414;6.776;2022-07-25T00:22:20;6.70;;;4.67;;
9098;SDS011;4585;51.414;6.776;2022-07-25T00:24:46;6.17;;;4.90;;
9098;SDS011;4585;51.414;6.776;2022-07-25T00:27:12;6.03;;;5.10;;
9098;SDS011;4585;51.414;6.776;2022-07-25T00:29:37;7.40;;;5.60;;
9098;SDS011;4585;51.414;6.776;2022-07-25T00:32:03;6.27;;;5.27;;
9098;SDS011;4585;51.414;6.776;2022-07-25T00:34:29;6.43;;;5.10;;
9098;SDS011;4585;51.414;6.776;2022-07-25T00:36:55;6.53;;;5.30;;
9098;SDS011;4585;51.414;6.776;2022-07-25T00:39:21;7.70;;;5.40;;
9098;SDS011;4585;51.414;6.776;2022-07-25T00:41:46;5.40;;;4.33;;
9098;SDS011;4585;51.414;6.776;2022-07-25T00:44:26;7.53;;;5.20;;
9098;SDS011;4585;51.414;6.776;2022-07-25T00:46:53;7.03;;;5.10;;
9098;SDS011;4585;51.414;6.776;2022-07-25T00:49:20;5.47;;;4.70;;
9098;SDS011;4585;51.414;6.776;2022-07-25T00:51:46;6.33;;;4.83;;
9098;SDS011;4585;51.414;6.776;2022-07-25T00:54:14;7.30;;;5.23;;
9098;SDS011;4585;51.414;6.776;2022-07-25T00:56:40;8.80;;;5.53;;
9098;SDS011;4585;51.414;6.776;2022-07-25T00:59:07;6.30;;;5.17;;
9098;SDS011;4585;51.414;6.776;2022-07-25T01:01:33;7.17;;;5.17;;
9098;SDS011;4585;51.414;6.776;2022-07-25T01:04:00;6.97;;;5.10;;
9098;SDS011;4585;51.414;6.776;2022-07-25T01:06:26;5.57;;;4.97;;
9098;SDS011;4585;51.414;6.776;2022-07-25T01:08:52;6.83;;;4.90;;
9098;SDS011;4585;51.414;6.776;2022-07-25T01:11:19;5.33;;;4.60;;
9098;SDS011;4585;51.414;6.776;2022-07-25T01:13:46;8.93;;;4.70;;
9098;SDS011;4585;51.414;6.776;2022-07-25T01:16:11;6.10;;;4.67;;
9098;SDS011;4585;51.414;6.776;2022-07-25T01:18:37;6.63;;;5.13;;
9098;SDS011;4585;51.414;6.776;2022-07-25T01:21:03;5.87;;;4.90;;
9098;SDS011;4585;51.414;6.776;2022-07-25T01:23:29;6.23;;;4.80;;
9098;SDS011;4585;51.414;6.776;2022-07-25T01:25:55;6.03;;;5.37;;
9098;SDS011;4585;51.414;6.776;2022-07-25T01:28:20;8.07;;;5.40;;
9098;SDS011;4585;51.414;6.776;2022-07-25T01:30:46;7.93;;;4.93;;
9098;SDS011;4585;51.414;6.776;2022-07-25T01:33:19;7.63;;;4.87;;
9098;SDS011;4585;51.414;6.776;2022-07-25T01:35:46;7.93;;;5.57;;
9098;SDS011;4585;51.414;6.776;2022-07-25T01:38:13;6.63;;;4.97;;
9098;SDS011;4585;51.414;6.776;2022-07-25T01:40:40;8.77;;;5.67;;
9098;SDS011;4585;51.414;6.776;2022-07-25T01:43:07;5.87;;;5.20;;
9098;SDS011;4585;51.414;6.776;2022-07-25T01:45:34;7.67;;;5.37;;
9098;SDS011;4585;51.414;6.776;2022-07-25T01:47:59;6.40;;;5.30;;
9098;SDS011;4585;51.414;6.776;2022-07-25T01:50:25;8.27;;;5.47;;
9098;SDS011;4585;51.414;6.776;2022-07-25T01:52:51;7.20;;;5.43;;
9098;SDS011;4585;51.414;6.776;2022-07-25T01:55:17;8.17;;;5.20;;
9098;SDS011;4585;51.414;6.776;2022-07-25T01:57:42;7.10;;;5.63;;
9098;SDS011;4585;51.414;6.776;2022-07-25T02:00:09;9.10;;;5.30;;
9098;SDS011;4585;51.414;6.776;2022-07-25T02:02:37;6.20;;;5.23;;
9098;SDS011;4585;51.414;6.776;2022-07-25T02:05:05;9.57;;;5.57;;
9098;SDS011;4585;51.414;6.776;2022-07-25T02:07:31;6.80;;;4.97;;
9098;SDS011;4585;51.414;6.776;2022-07-25T02:09:57;6.53;;;5.13;;
9098;SDS011;4585;51.414;6.776;2022-07-25T02:12:23;6.93;;;5.40;;
9098;SDS011;4585;51.414;6.776;2022-07-25T02:14:49;6.13;;;5.07;;
9098;SDS011;4585;51.414;6.776;2022-07-25T02:17:14;6.40;;;4.93;;
9098;SDS011;4585;51.414;6.776;2022-07-25T02:19:40;6.83;;;5.20;;
9098;SDS011;4585;51.414;6.776;2022-07-25T02:22:06;6.43;;;5.43;;
9098;SDS011;4585;51.414;6.776;2022-07-25T02:24:32;6.47;;;5.63;;
9098;SDS011;4585;51.414;6.776;2022-07-25T02:26:58;7.13;;;5.20;;
9098;SDS011;4585;51.414;6.776;2022-07-25T02:29:23;7.33;;;5.27;;
9098;SDS011;4585;51.414;6.776;2022-07-25T02:31:49;6.00;;;4.90;;
9098;SDS011;4585;51.414;6.776;2022-07-25T02:34:16;8.27;;;5.37;;
9098;SDS011;4585;51.414;6.776;2022-07-25T02:36:42;7.37;;;5.07;;
9098;SDS011;4585;51.414;6.776;2022-07-25T02:39:09;7.03;;;5.27;;
9098;SDS011;4585;51.414;6.776;2022-07-25T02:41:35;7.20;;;5.03;;
9098;SDS011;4585;51.414;6.776;2022-07-25T02:44:01;8.80;;;5.50;;
9098;SDS011;4585;51.414;6.776;2022-07-25T02:46:27;8.37;;;5.50;;
9098;SDS011;4585;51.414;6.776;2022-07-25T02:48:53;6.77;;;5.30;;
9098;SDS011;4585;51.414;6.776;2022-07-25T02:51:19;6.70;;;5.43;;
9098;SDS011;4585;51.414;6.776;2022-07-25T02:53:45;7.33;;;5.30;;
9098;SDS011;4585;51.414;6.776;2022-07-25T02:56:10;6.57;;;5.37;;
9098;SDS011;4585;51.414;6.776;2022-07-25T02:58:36;6.87;;;5.47;;
9098;SDS011;4585;51.414;6.776;2022-07-25T03:01:02;6.13;;;5.33;;
9098;SDS011;4585;51.414;6.776;2022-07-25T03:03:27;7.87;;;5.53;;
9098;SDS011;4585;51.414;6.776;2022-07-25T03:05:53;6.73;;;5.30;;
9098;SDS011;4585;51.414;6.776;2022-07-25T03:08:19;7.67;;;5.90;;
9098;SDS011;4585;51.414;6.776;2022-07-25T03:10:44;7.90;;;5.23;;
9098;SDS011;4585;51.414;6.776;2022-07-25T03:13:10;6.73;;;5.33;;
9098;SDS011;4585;51.414;6.776;2022-07-25T03:15:36;5.83;;;5.10;;
9098;SDS011;4585;51.414;6.776;2022-07-25T03:18:01;6.90;;;5.13;;
9098;SDS011;4585;51.414;6.776;2022-07-25T03:20:27;7.23;;;5.60;;
9098;SDS011;4585;51.414;6.776;2022-07-25T03:22:53;6.07;;;5.47;;
9098;SDS011;4585;51.414;6.776;2022-07-25T03:25:18;7.00;;;5.50;;
9098;SDS011;4585;51.414;6.776;2022-07-25T03:27:44;7.03;;;5.13;;
9098;SDS011;4585;51.414;6.776;2022-07-25T03:30:10;7.80;;;5.33;;
9098;SDS011;4585;51.414;6.776;2022-07-25T03:32:36;6.50;;;5.10;;
9098;SDS011;4585;51.414;6.776;2022-07-25T03:35:02;7.13;;;5.40;;
9098;SDS011;4585;51.414;6.776;2022-07-25T03:37:29;8.70;;;5.90;;
9098;SDS011;4585;51.414;6.776;2022-07-25T03:39:55;6.60;;;5.47;;
9098;SDS011;4585;51.414;6.776;2022-07-25T03:42:20;9.33;;;5.30;;
9098;SDS011;4585;51.414;6.776;2022-07-25T03:44:48;9.67;;;5.33;;
9098;SDS011;4585;51.414;6.776;2022-07-25T03:47:14;9.43;;;5.17;;
9098;SDS011;4585;51.414;6.776;2022-07-25T03:49:39;6.63;;;5.03;;
9098;SDS011;4585;51.414;6.776;2022-07-25T03:52:05;7.93;;;5.07;;
9098;SDS011;4585;51.414;6.776;2022-07-25T03:54:31;5.73;;;5.10;;
9098;SDS011;4585;51.414;6.776;2022-07-25T03:56:56;7.20;;;5.63;;
9098;SDS011;4585;51.414;6.776;2022-07-25T03:59:22;5.57;;;4.97;;
9098;SDS011;4585;51.414;6.776;2022-07-25T04:01:48;6.40;;;5.10;;
9098;SDS011;4585;51.414;6.776;2022-07-25T04:04:15;9.13;;;5.27;;
9098;SDS011;4585;51.414;6.776;2022-07-25T04:06:41;6.73;;;5.37;;
9098;SDS011;4585;51.414;6.776;2022-07-25T04:09:08;6.90;;;5.33;;
9098;SDS011;4585;51.414;6.776;2022-07-25T04:11:34;7.10;;;5.10;;
9098;SDS011;4585;51.414;6.776;2022-07-25T04:14:02;6.67;;;5.23;;
9098;SDS011;4585;51.414;6.776;2022-07-25T04:16:28;5.60;;;4.67;;
9098;SDS011;4585;51.414;6.776;2022-07-25T04:18:54;7.67;;;5.00;;
9098;SDS011;4585;51.414;6.776;2022-07-25T04:21:21;6.10;;;4.70;;
9098;SDS011;4585;51.414;6.776;2022-07-25T04:23:47;6.27;;;4.90;;
9098;SDS011;4585;51.414;6.776;2022-07-25T04:26:13;10.20;;;4.90;;
9098;SDS011;4585;51.414;6.776;2022-07-25T04:28:39;10.10;;;4.87;;
9098;SDS011;4585;51.414;6.776;2022-07-25T04:31:05;7.67;;;4.63;;
9098;SDS011;4585;51.414;6.776;2022-07-25T04:33:31;6.30;;;4.87;;
9098;SDS011;4585;51.414;6.776;2022-07-25T04:35:56;6.10;;;5.00;;
9098;SDS011;4585;51.414;6.776;2022-07-25T04:38:22;5.67;;;4.83;;
9098;SDS011;4585;51.414;6.776;2022-07-25T04:40:48;6.80;;;5.27;;
9098;SDS011;4585;51.414;6.776;2022-07-25T04:43:13;7.17;;;4.80;;
9098;SDS011;4585;51.414;6.776;2022-07-25T04:45:39;5.93;;;4.37;;
9098;SDS011;4585;51.414;6.776;2022-07-25T04:48:05;5.47;;;4.23;;
9098;SDS011;4585;51.414;6.776;2022-07-25T04:50:31;5.80;;;4.57;;
9098;SDS011;4585;51.414;6.776;2022-07-25T04:52:57;6.77;;;4.93;;
9098;SDS011;4585;51.414;6.776;2022-07-25T04:55:22;6.30;;;4.93;;
9098;SDS011;4585;51.414;6.776;2022-07-25T04:57:48;7.13;;;4.73;;
9098;SDS011;4585;51.414;6.776;2022-07-25T05:00:14;5.40;;;4.43;;
9098;SDS011;4585;51.414;6.776;2022-07-25T05:02:40;10.77;;;4.83;;
9098;SDS011;4585;51.414;6.776;2022-07-25T05:05:07;5.23;;;4.30;;
9098;SDS011;4585;51.414;6.776;2022-07-25T05:07:33;6.53;;;4.30;;
9098;SDS011;4585;51.414;6.776;2022-07-25T05:10:00;7.37;;;4.50;;
9098;SDS011;4585;51.414;6.776;2022-07-25T05:12:25;6.33;;;4.10;;
9098;SDS011;4585;51.414;6.776;2022-07-25T05:14:51;7.63;;;4.57;;
9098;SDS011;4585;51.414;6.776;2022-07-25T05:17:18;5.57;;;4.20;;
9098;SDS011;4585;51.414;6.776;2022-07-25T05:19:43;6.23;;;4.53;;
9098;SDS011;4585;51.414;6.776;2022-07-25T05:22:09;5.47;;;4.23;;
9098;SDS011;4585;51.414;6.776;2022-07-25T05:24:35;5.87;;;4.40;;
9098;SDS011;4585;51.414;6.776;2022-07-25T05:27:01;5.23;;;4.13;;
9098;SDS011;4585;51.414;6.776;2022-07-25T05:29:28;6.33;;;4.20;;
9098;SDS011;4585;51.414;6.776;2022-07-25T05:31:54;6.43;;;4.27;;
9098;SDS011;4585;51.414;6.776;2022-07-25T05:34:19;8.87;;;4.20;;
9098;SDS011;4585;51.414;6.776;2022-07-25T05:36:45;4.97;;;4.13;;
9098;SDS011;4585;51.414;6.776;2022-07-25T05:39:11;6.27;;;4.00;;
9098;SDS011;4585;51.414;6.776;2022-07-25T05:41:37;5.57;;;4.40;;
9098;SDS011;4585;51.414;6.776;2022-07-25T05:44:03;6.80;;;3.93;;
9098;SDS011;4585;51.414;6.776;2022-07-25T05:46:31;5.53;;;4.13;;
9098;SDS011;4585;51.414;6.776;2022-07-25T05:48:57;6.50;;;4.10;;
9098;SDS011;4585;51.414;6.776;2022-07-25T05:51:23;5.27;;;4.30;;
9098;SDS011;4585;51.414;6.776;2022-07-25T05:53:48;5.27;;;4.23;;
9098;SDS011;4585;51.414;6.776;2022-07-25T05:56:14;5.27;;;4.07;;
9098;SDS011;4585;51.414;6.776;2022-07-25T05:58:40;5.83;;;3.90;;
9098;SDS011;4585;51.414;6.776;2022-07-25T06:01:06;5.03;;;3.90;;
9098;SDS011;4585;51.414;6.776;2022-07-25T06:03:35;6.03;;;4.40;;
9098;SDS011;4585;51.414;6.776;2022-07-25T06:06:01;4.93;;;4.33;;
9098;SDS011;4585;51.414;6.776;2022-07-25T06:08:27;4.50;;;3.80;;
9098;SDS011;4585;51.414;6.776;2022-07-25T06:10:54;5.30;;;4.17;;
9098;SDS011;4585;51.414;6.776;2022-07-25T06:13:24;6.53;;;4.25;;
9098;SDS011;4585;51.414;6.776;2022-07-25T06:15:50;4.73;;;4.03;;
9098;SDS011;4585;51.414;6.776;2022-07-25T06:18:16;6.05;;;3.88;;
9098;SDS011;4585;51.414;6.776;2022-07-25T06:20:41;4.85;;;4.25;;
9098;SDS011;4585;51.414;6.776;2022-07-25T06:23:07;5.23;;;4.10;;
9098;SDS011;4585;51.414;6.776;2022-07-25T06:25:33;6.10;;;3.97;;
9098;SDS011;4585;51.414;6.776;2022-07-25T06:27:59;6.80;;;4.17;;
9098;SDS011;4585;51.414;6.776;2022-07-25T06:30:25;6.40;;;4.00;;
9098;SDS011;4585;51.414;6.776;2022-07-25T06:32:51;4.93;;;4.10;;
9098;SDS011;4585;51.414;6.776;2022-07-25T06:35:18;4.90;;;3.63;;
9098;SDS011;4585;51.414;6.776;2022-07-25T06:37:44;9.98;;;4.07;;
9098;SDS011;4585;51.414;6.776;2022-07-25T06:40:09;5.68;;;4.05;;
9098;SDS011;4585;51.414;6.776;2022-07-25T06:42:39;5.55;;;4.25;;
9098;SDS011;4585;51.414;6.776;2022-07-25T06:45:12;5.55;;;4.30;;
9098;SDS011;4585;51.414;6.776;2022-07-25T06:47:40;4.47;;;3.78;;
9098;SDS011;4585;51.414;6.776;2022-07-25T06:50:07;4.47;;;3.75;;
9098;SDS011;4585;51.414;6.776;2022-07-25T06:52:34;4.85;;;3.88;;
9098;SDS011;4585;51.414;6.776;2022-07-25T06:55:01;6.28;;;4.13;;
9098;SDS011;4585;51.414;6.776;2022-07-25T06:57:28;6.95;;;4.22;;
9098;SDS011;4585;51.414;6.776;2022-07-25T06:59:54;9.40;;;4.10;;
9098;SDS011;4585;51.414;6.776;2022-07-25T07:02:19;5.72;;;4.30;;
9098;SDS011;4585;51.414;6.776;2022-07-25T07:04:45;9.70;;;4.53;;
9098;SDS011;4585;51.414;6.776;2022-07-25T07:07:11;5.72;;;4.13;;
9098;SDS011;4585;51.414;6.776;2022-07-25T07:09:37;5.90;;;3.97;;
9098;SDS011;4585;51.414;6.776;2022-07-25T07:12:03;5.70;;;4.15;;
9098;SDS011;4585;51.414;6.776;2022-07-25T07:14:28;5.00;;;3.97;;
9098;SDS011;4585;51.414;6.776;2022-07-25T07:16:54;5.32;;;4.22;;
9098;SDS011;4585;51.414;6.776;2022-07-25T07:19:20;5.20;;;4.22;;
9098;SDS011;4585;51.414;6.776;2022-07-25T07:21:46;8.32;;;4.32;;
9098;SDS011;4585;51.414;6.776;2022-07-25T07:24:13;5.13;;;4.22;;
9098;SDS011;4585;51.414;6.776;2022-07-25T07:26:39;6.88;;;4.45;;
9098;SDS011;4585;51.414;6.776;2022-07-25T07:29:05;7.63;;;4.47;;
9098;SDS011;4585;51.414;6.776;2022-07-25T07:31:30;9.20;;;4.15;;
9098;SDS011;4585;51.414;6.776;2022-07-25T07:33:56;6.60;;;4.22;;
9098;SDS011;4585;51.414;6.776;2022-07-25T07:36:23;5.85;;;4.03;;
9098;SDS011;4585;51.414;6.776;2022-07-25T07:38:49;5.32;;;4.07;;
9098;SDS011;4585;51.414;6.776;2022-07-25T07:41:16;5.80;;;4.32;;
9098;SDS011;4585;51.414;6.776;2022-07-25T07:43:43;6.25;;;4.32;;
9098;SDS011;4585;51.414;6.776;2022-07-25T07:46:09;7.20;;;4.18;;
9098;SDS011;4585;51.414;6.776;2022-07-25T07:48:35;10.48;;;5.70;;
9098;SDS011;4585;51.414;6.776;2022-07-25T07:51:01;5.97;;;4.13;;
9098;SDS011;4585;51.414;6.776;2022-07-25T07:53:27;6.38;;;4.75;;
9098;SDS011;4585;51.414;6.776;2022-07-25T07:56:12;13.05;;;5.13;;
9098;SDS011;4585;51.414;6.776;2022-07-25T07:58:38;6.97;;;4.78;;
9098;SDS011;4585;51.414;6.776;2022-07-25T08:01:04;6.97;;;4.82;;
9098;SDS011;4585;51.414;6.776;2022-07-25T08:03:31;10.73;;;4.45;;
9098;SDS011;4585;51.414;6.776;2022-07-25T08:05:57;6.72;;;4.20;;
9098;SDS011;4585;51.414;6.776;2022-07-25T08:08:23;6.97;;;4.15;;
9098;SDS011;4585;51.414;6.776;2022-07-25T08:10:49;4.63;;;3.75;;
9098;SDS011;4585;51.414;6.776;2022-07-25T08:13:22;6.05;;;3.97;;
9098;SDS011;4585;51.414;6.776;2022-07-25T08:15:51;5.93;;;4.68;;
9098;SDS011;4585;51.414;6.776;2022-07-25T08:18:19;6.25;;;3.90;;
9098;SDS011;4585;51.414;6.776;2022-07-25T08:20:45;9.93;;;4.55;;
9098;SDS011;4585;51.414;6.776;2022-07-25T08:23:12;4.55;;;3.67;;
9098;SDS011;4585;51.414;6.776;2022-07-25T08:25:38;6.07;;;4.00;;
9098;SDS011;4585;51.414;6.776;2022-07-25T08:28:04;5.93;;;4.05;;
9098;SDS011;4585;51.414;6.776;2022-07-25T08:30:31;4.70;;;3.72;;
9098;SDS011;4585;51.414;6.776;2022-07-25T08:32:58;4.57;;;3.60;;
9098;SDS011;4585;51.414;6.776;2022-07-25T08:35:26;6.07;;;4.25;;
9098;SDS011;4585;51.414;6.776;2022-07-25T08:37:53;9.57;;;4.40;;
9098;SDS011;4585;51.414;6.776;2022-07-25T08:40:19;5.97;;;3.70;;
9098;SDS011;4585;51.414;6.776;2022-07-25T08:42:47;7.65;;;3.85;;
9098;SDS011;4585;51.414;6.776;2022-07-25T08:45:13;6.53;;;4.30;;
9098;SDS011;4585;51.414;6.776;2022-07-25T08:47:45;6.00;;;4.07;;
9098;SDS011;4585;51.414;6.776;2022-07-25T08:50:13;5.40;;;3.72;;
9098;SDS011;4585;51.414;6.776;2022-07-25T08:52:43;5.57;;;4.00;;
9098;SDS011;4585;51.414;6.776;2022-07-25T08:55:12;7.00;;;3.75;;
9098;SDS011;4585;51.414;6.776;2022-07-25T08:57:41;4.45;;;3.70;;
9098;SDS011;4585;51.414;6.776;2022-07-25T09:00:10;6.85;;;3.75;;
9098;SDS011;4585;51.414;6.776;2022-07-25T09:02:39;6.90;;;4.10;;
9098;SDS011;4585;51.414;6.776;2022-07-25T09:05:05;4.97;;;3.67;;
9098;SDS011;4585;51.414;6.776;2022-07-25T09:07:36;6.22;;;4.13;;
9098;SDS011;4585;51.414;6.776;2022-07-25T09:10:14;5.63;;;3.92;;
9098;SDS011;4585;51.414;6.776;2022-07-25T09:12:57;5.75;;;4.10;;
9098;SDS011;4585;51.414;6.776;2022-07-25T09:15:31;5.22;;;3.42;;
9098;SDS011;4585;51.414;6.776;2022-07-25T09:18:02;5.32;;;4.13;;
9098;SDS011;4585;51.414;6.776;2022-07-25T09:23:05;4.63;;;3.58;;
9098;SDS011;4585;51.414;6.776;2022-07-25T09:25:31;5.43;;;3.72;;
9098;SDS011;4585;51.414;6.776;2022-07-25T09:30:38;4.70;;;3.75;;
9098;SDS011;4585;51.414;6.776;2022-07-25T09:33:05;7.18;;;4.03;;
9098;SDS011;4585;51.414;6.776;2022-07-25T09:35:31;6.57;;;4.10;;
9098;SDS011;4585;51.414;6.776;2022-07-25T09:38:12;5.10;;;3.97;;
9098;SDS011;4585;51.414;6.776;2022-07-25T09:40:40;5.00;;;4.03;;
9098;SDS011;4585;51.414;6.776;2022-07-25T09:43:06;7.35;;;3.60;;
9098;SDS011;4585;51.414;6.776;2022-07-25T09:45:32;5.32;;;3.97;;
9098;SDS011;4585;51.414;6.776;2022-07-25T09:48:02;4.53;;;3.40;;
9098;SDS011;4585;51.414;6.776;2022-07-25T09:50:29;5.80;;;3.40;;
9098;SDS011;4585;51.414;6.776;2022-07-25T09:52:58;5.22;;;3.50;;
9098;SDS011;4585;51.414;6.776;2022-07-25T09:55:26;7.10;;;3.88;;
9098;SDS011;4585;51.414;6.776;2022-07-25T09:57:52;4.20;;;3.33;;
9098;SDS011;4585;51.414;6.776;2022-07-25T10:00:19;5.18;;;3.50;;
9098;SDS011;4585;51.414;6.776;2022-07-25T10:05:57;4.35;;;3.30;;
9098;SDS011;4585;51.414;6.776;2022-07-25T10:08:20;5.05;;;3.00;;
9098;SDS011;4585;51.414;6.776;2022-07-25T10:10:47;5.13;;;3.30;;
9098;SDS011;4585;51.414;6.776;2022-07-25T10:13:14;5.85;;;2.80;;
9098;SDS011;4585;51.414;6.776;2022-07-25T10:15:43;7.75;;;2.83;;
9098;SDS011;4585;51.414;6.776;2022-07-25T10:18:17;3.60;;;2.80;;
9098;SDS011;4585;51.414;6.776;2022-07-25T10:20:45;3.70;;;2.80;;
9098;SDS011;4585;51.414;6.776;2022-07-25T10:23:20;3.97;;;2.60;;
9098;SDS011;4585;51.414;6.776;2022-07-25T10:26:00;3.22;;;2.50;;
9098;SDS011;4585;51.414;6.776;2022-07-25T10:28:47;2.80;;;2.33;;
9098;SDS011;4585;51.414;6.776;2022-07-25T10:31:15;2.65;;;2.40;;
9098;SDS011;4585;51.414;6.776;2022-07-25T10:33:45;3.33;;;2.80;;
9098;SDS011;4585;51.414;6.776;2022-07-25T10:36:12;3.63;;;2.83;;
9098;SDS011;4585;51.414;6.776;2022-07-25T10:38:38;3.72;;;3.05;;
9098;SDS011;4585;51.414;6.776;2022-07-25T10:41:07;3.13;;;2.83;;
9098;SDS011;4585;51.414;6.776;2022-07-25T10:43:37;2.72;;;2.38;;
9098;SDS011;4585;51.414;6.776;2022-07-25T10:46:11;4.65;;;2.33;;
9098;SDS011;4585;51.414;6.776;2022-07-25T10:48:38;4.78;;;2.28;;
9098;SDS011;4585;51.414;6.776;2022-07-25T10:51:05;6.90;;;2.70;;
9098;SDS011;4585;51.414;6.776;2022-07-25T10:53:36;3.83;;;2.42;;
9098;SDS011;4585;51.414;6.776;2022-07-25T10:56:18;4.43;;;2.58;;
9098;SDS011;4585;51.414;6.776;2022-07-25T11:01:11;2.65;;;2.17;;
9098;SDS011;4585;51.414;6.776;2022-07-25T11:03:41;3.40;;;2.60;;
9098;SDS011;4585;51.414;6.776;2022-07-25T11:06:09;3.03;;;2.42;;
9098;SDS011;4585;51.414;6.776;2022-07-25T11:08:39;3.15;;;2.50;;
9098;SDS011;4585;51.414;6.776;2022-07-25T11:11:07;2.40;;;2.20;;
9098;SDS011;4585;51.414;6.776;2022-07-25T11:13:38;2.65;;;2.33;;
9098;SDS011;4585;51.414;6.776;2022-07-25T11:16:05;5.05;;;2.83;;
9098;SDS011;4585;51.414;6.776;2022-07-25T11:18:35;2.25;;;2.00;;
9098;SDS011;4585;51.414;6.776;2022-07-25T11:21:04;2.40;;;1.92;;
9098;SDS011;4585;51.414;6.776;2022-07-25T11:23:31;3.10;;;2.10;;
9098;SDS011;4585;51.414;6.776;2022-07-25T11:26:10;2.25;;;1.85;;
9098;SDS011;4585;51.414;6.776;2022-07-25T11:28:42;4.72;;;2.08;;
9098;SDS011;4585;51.414;6.776;2022-07-25T11:31:09;8.18;;;2.63;;
9098;SDS011;4585;51.414;6.776;2022-07-25T11:33:36;6.30;;;2.40;;
9098;SDS011;4585;51.414;6.776;2022-07-25T11:36:03;3.13;;;2.40;;
9098;SDS011;4585;51.414;6.776;2022-07-25T11:38:29;5.45;;;2.55;;
9098;SDS011;4585;51.414;6.776;2022-07-25T11:40:55;2.58;;;2.10;;
9098;SDS011;4585;51.414;6.776;2022-07-25T11:43:22;5.75;;;2.20;;
9098;SDS011;4585;51.414;6.776;2022-07-25T11:46:21;2.90;;;2.40;;
9098;SDS011;4585;51.414;6.776;2022-07-25T11:48:42;3.13;;;2.28;;
9098;SDS011;4585;51.414;6.776;2022-07-25T11:51:08;3.33;;;2.40;;
9098;SDS011;4585;51.414;6.776;2022-07-25T11:54:10;2.47;;;2.25;;
9098;SDS011;4585;51.414;6.776;2022-07-25T11:56:35;3.00;;;2.30;;
9098;SDS011;4585;51.414;6.776;2022-07-25T11:59:03;4.18;;;2.00;;
9098;SDS011;4585;51.414;6.776;2022-07-25T12:01:32;4.00;;;2.40;;
9098;SDS011;4585;51.414;6.776;2022-07-25T12:06:39;3.00;;;2.13;;
9098;SDS011;4585;51.414;6.776;2022-07-25T12:09:13;2.95;;;1.95;;
9098;SDS011;4585;51.414;6.776;2022-07-25T12:11:42;2.90;;;2.17;;
9098;SDS011;4585;51.414;6.776;2022-07-25T12:14:11;3.25;;;2.08;;
9098;SDS011;4585;51.414;6.776;2022-07-25T12:16:37;3.97;;;2.40;;
9098;SDS011;4585;51.414;6.776;2022-07-25T12:19:06;3.70;;;2.33;;
9098;SDS011;4585;51.414;6.776;2022-07-25T12:21:33;2.67;;;1.98;;
9098;SDS011;4585;51.414;6.776;2022-07-25T12:24:00;4.82;;;2.15;;
9098;SDS011;4585;51.414;6.776;2022-07-25T12:26:26;4.15;;;1.98;;
9098;SDS011;4585;51.414;6.776;2022-07-25T12:28:52;4.55;;;2.17;;
9098;SDS011;4585;51.414;6.776;2022-07-25T12:31:17;3.33;;;2.10;;
9098;SDS011;4585;51.414;6.776;2022-07-25T12:33:43;5.15;;;2.33;;
9098;SDS011;4585;51.414;6.776;2022-07-25T12:36:10;3.40;;;2.53;;
9098;SDS011;4585;51.414;6.776;2022-07-25T12:38:36;3.13;;;2.35;;
9098;SDS011;4585;51.414;6.776;2022-07-25T12:41:02;2.88;;;2.55;;
9098;SDS011;4585;51.414;6.776;2022-07-25T12:43:28;3.75;;;2.67;;
9098;SDS011;4585;51.414;6.776;2022-07-25T12:45:54;5.00;;;2.42;;
9098;SDS011;4585;51.414;6.776;2022-07-25T12:48:19;4.38;;;2.72;;
9098;SDS011;4585;51.414;6.776;2022-07-25T12:50:45;4.28;;;2.60;;
9098;SDS011;4585;51.414;6.776;2022-07-25T12:53:11;3.90;;;3.03;;
9098;SDS011;4585;51.414;6.776;2022-07-25T12:55:37;4.55;;;2.80;;
9098;SDS011;4585;51.414;6.776;2022-07-25T12:58:04;3.88;;;2.95;;
9098;SDS011;4585;51.414;6.776;2022-07-25T13:00:30;2.45;;;2.25;;
9098;SDS011;4585;51.414;6.776;2022-07-25T13:02:56;6.70;;;2.58;;
9098;SDS011;4585;51.414;6.776;2022-07-25T13:05:22;7.13;;;2.30;;
9098;SDS011;4585;51.414;6.776;2022-07-25T13:07:49;3.97;;;2.13;;
9098;SDS011;4585;51.414;6.776;2022-07-25T13:10:15;2.45;;;2.08;;
9098;SDS011;4585;51.414;6.776;2022-07-25T13:12:42;3.55;;;2.38;;
9098;SDS011;4585;51.414;6.776;2022-07-25T13:15:07;3.17;;;2.30;;
9098;SDS011;4585;51.414;6.776;2022-07-25T13:17:34;5.65;;;2.42;;
9098;SDS011;4585;51.414;6.776;2022-07-25T13:19:59;4.97;;;2.25;;
9098;SDS011;4585;51.414;6.776;2022-07-25T13:22:25;3.70;;;2.13;;
9098;SDS011;4585;51.414;6.776;2022-07-25T13:24:52;3.60;;;2.20;;
9098;SDS011;4585;51.414;6.776;2022-07-25T13:27:19;5.00;;;2.53;;
9098;SDS011;4585;51.414;6.776;2022-07-25T13:29:45;2.85;;;2.28;;
9098;SDS011;4585;51.414;6.776;2022-07-25T13:32:11;3.00;;;2.17;;
9098;SDS011;4585;51.414;6.776;2022-07-25T13:34:37;3.40;;;2.08;;
9098;SDS011;4585;51.414;6.776;2022-07-25T13:37:03;2.42;;;1.98;;
9098;SDS011;4585;51.414;6.776;2022-07-25T13:39:29;2.78;;;2.03;;
9098;SDS011;4585;51.414;6.776;2022-07-25T13:41:55;2.33;;;1.90;;
9098;SDS011;4585;51.414;6.776;2022-07-25T13:44:20;2.72;;;1.70;;
9098;SDS011;4585;51.414;6.776;2022-07-25T13:46:46;4.18;;;2.00;;
9098;SDS011;4585;51.414;6.776;2022-07-25T13:49:14;2.17;;;1.70;;
9098;SDS011;4585;51.414;6.776;2022-07-25T13:51:41;2.80;;;1.90;;
9098;SDS011;4585;51.414;6.776;2022-07-25T13:54:06;1.63;;;1.50;;
9098;SDS011;4585;51.414;6.776;2022-07-25T13:56:32;1.80;;;1.55;;
9098;SDS011;4585;51.414;6.776;2022-07-25T13:58:58;2.35;;;1.48;;
9098;SDS011;4585;51.414;6.776;2022-07-25T14:01:24;2.47;;;1.80;;
9098;SDS011;4585;51.414;6.776;2022-07-25T14:03:52;4.88;;;2.05;;
9098;SDS011;4585;51.414;6.776;2022-07-25T14:06:18;6.68;;;1.95;;
9098;SDS011;4585;51.414;6.776;2022-07-25T14:08:44;2.17;;;1.65;;
9098;SDS011;4585;51.414;6.776;2022-07-25T14:11:10;4.03;;;1.98;;
9098;SDS011;4585;51.414;6.776;2022-07-25T14:13:35;2.00;;;1.80;;
9098;SDS011;4585;51.414;6.776;2022-07-25T14:16:02;2.33;;;1.77;;
9098;SDS011;4585;51.414;6.776;2022-07-25T14:18:28;2.78;;;1.88;;
9098;SDS011;4585;51.414;6.776;2022-07-25T14:20:56;2.22;;;1.67;;
9098;SDS011;4585;51.414;6.776;2022-07-25T14:23:25;4.20;;;2.28;;
9098;SDS011;4585;51.414;6.776;2022-07-25T14:25:50;1.65;;;1.55;;
9098;SDS011;4585;51.414;6.776;2022-07-25T14:28:16;3.75;;;1.60;;
9098;SDS011;4585;51.414;6.776;2022-07-25T14:30:42;3.63;;;1.55;;
9098;SDS011;4585;51.414;6.776;2022-07-25T14:33:07;3.30;;;1.88;;
9098;SDS011;4585;51.414;6.776;2022-07-25T14:35:33;2.95;;;2.00;;
9098;SDS011;4585;51.414;6.776;2022-07-25T14:37:59;2.55;;;1.95;;
9098;SDS011;4585;51.414;6.776;2022-07-25T14:40:25;3.42;;;1.90;;
9098;SDS011;4585;51.414;6.776;2022-07-25T14:42:51;2.95;;;2.00;;
9098;SDS011;4585;51.414;6.776;2022-07-25T14:45:19;5.68;;;2.25;;
9098;SDS011;4585;51.414;6.776;2022-07-25T14:47:46;3.15;;;1.95;;
9098;SDS011;4585;51.414;6.776;2022-07-25T14:50:11;2.70;;;1.60;;
9098;SDS011;4585;51.414;6.776;2022-07-25T14:52:37;6.90;;;2.80;;
9098;SDS011;4585;51.414;6.776;2022-07-25T14:55:03;4.55;;;2.08;;
9098;SDS011;4585;51.414;6.776;2022-07-25T14:57:30;4.35;;;2.30;;
9098;SDS011;4585;51.414;6.776;2022-07-25T14:59:55;3.70;;;1.80;;
9098;SDS011;4585;51.414;6.776;2022-07-25T15:02:21;2.95;;;2.22;;
9098;SDS011;4585;51.414;6.776;2022-07-25T15:04:47;3.47;;;2.17;;
9098;SDS011;4585;51.414;6.776;2022-07-25T15:07:13;3.97;;;2.25;;
9098;SDS011;4585;51.414;6.776;2022-07-25T15:09:38;3.10;;;1.83;;
9098;SDS011;4585;51.414;6.776;2022-07-25T15:12:04;3.85;;;1.95;;
9098;SDS011;4585;51.414;6.776;2022-07-25T15:14:30;2.92;;;2.17;;
9098;SDS011;4585;51.414;6.776;2022-07-25T15:16:56;9.40;;;1.83;;
9098;SDS011;4585;51.414;6.776;2022-07-25T15:19:21;4.78;;;1.88;;
9098;SDS011;4585;51.414;6.776;2022-07-25T15:21:47;2.85;;;1.90;;
9098;SDS011;4585;51.414;6.776;2022-07-25T15:24:13;4.72;;;1.90;;
9098;SDS011;4585;51.414;6.776;2022-07-25T15:26:39;3.80;;;1.98;;